sensor_id;sensor_type;location;lat;lon;timestamp;temperature;humidity
17795;DHT22;9021;50.882;4.326;2023-03-02T00:01:04;4.70;81.60
17795;DHT22;9021;50.882;4.326;2023-03-02T00:03:32;4.70;82.10
17795;DHT22;9021;50.882;4.326;2023-03-02T00:05:59;4.60;82.00
17795;DHT22;9021;50.882;4.326;2023-03-02T00:08:25;4.70;82.10
17795;DHT22;9021;50.882;4.326;2023-03-02T00:10:51;4.60;81.70
17795;DHT22;9021;50.882;4.326;2023-03-02T00:13:19;4.60;82.20
17795;DHT22;9021;50.882;4.326;2023-03-02T00:15:44;4.50;82.20
17795;DHT22;9021;50.882;4.326;2023-03-02T00:18:10;5.00;82.80
17795;DHT22;9021;50.882;4.326;2023-03-02T00:20:36;4.50;82.70
17795;DHT22;9021;50.882;4.326;2023-03-02T00:23:01;4.40;82.60
17795;DHT22;9021;50.882;4.326;2023-03-02T00:25:27;4.50;82.30
17795;DHT22;9021;50.882;4.326;2023-03-02T00:27:53;4.50;82.30
17795;DHT22;9021;50.882;4.326;2023-03-02T00:30:19;4.60;82.00
17795;DHT22;9021;50.882;4.326;2023-03-02T00:32:44;4.50;82.50
17795;DHT22;9021;50.882;4.326;2023-03-02T00:35:10;4.50;82.30
17795;DHT22;9021;50.882;4.326;2023-03-02T00:37:36;4.50;82.30
17795;DHT22;9021;50.882;4.326;2023-03-02T00:40:03;4.50;82.40
17795;DHT22;9021;50.882;4.326;2023-03-02T00:42:30;4.40;82.90
17795;DHT22;9021;50.882;4.326;2023-03-02T00:44:56;4.40;82.70
17795;DHT22;9021;50.882;4.326;2023-03-02T00:47:23;4.40;82.60
17795;DHT22;9021;50.882;4.326;2023-03-02T00:49:49;4.60;82.50
17795;DHT22;9021;50.882;4.326;2023-03-02T00:52:15;4.50;82.30
17795;DHT22;9021;50.882;4.326;2023-03-02T00:54:41;4.40;82.10
17795;DHT22;9021;50.882;4.326;2023-03-02T00:57:07;4.50;82.30
17795;DHT22;9021;50.882;4.326;2023-03-02T00:59:33;4.50;82.20
17795;DHT22;9021;50.882;4.326;2023-03-02T01:02:01;4.30;82.70
17795;DHT22;9021;50.882;4.326;2023-03-02T01:04:35;4.30;82.80
17795;DHT22;9021;50.882;4.326;2023-03-02T01:07:04;4.20;83.30
17795;DHT22;9021;50.882;4.326;2023-03-02T01:09:30;4.20;83.20
17795;DHT22;9021;50.882;4.326;2023-03-02T01:11:56;4.20;83.70
17795;DHT22;9021;50.882;4.326;2023-03-02T01:14:22;4.10;83.90
17795;DHT22;9021;50.882;4.326;2023-03-02T01:16:47;4.10;83.70
17795;DHT22;9021;50.882;4.326;2023-03-02T01:19:13;4.10;83.30
17795;DHT22;9021;50.882;4.326;2023-03-02T01:21:40;4.20;83.00
17795;DHT22;9021;50.882;4.326;2023-03-02T01:24:07;4.10;83.60
17795;DHT22;9021;50.882;4.326;2023-03-02T01:26:32;4.20;83.70
17795;DHT22;9021;50.882;4.326;2023-03-02T01:28:58;4.20;83.50
17795;DHT22;9021;50.882;4.326;2023-03-02T01:31:27;4.20;83.80
17795;DHT22;9021;50.882;4.326;2023-03-02T01:33:53;4.10;83.30
17795;DHT22;9021;50.882;4.326;2023-03-02T01:36:20;4.20;83.30
17795;DHT22;9021;50.882;4.326;2023-03-02T01:38:46;4.10;83.50
17795;DHT22;9021;50.882;4.326;2023-03-02T01:41:11;4.10;84.20
17795;DHT22;9021;50.882;4.326;2023-03-02T01:43:37;4.00;84.30
17795;DHT22;9021;50.882;4.326;2023-03-02T01:46:04;4.00;84.70
17795;DHT22;9021;50.882;4.326;2023-03-02T01:48:34;3.90;84.80
17795;DHT22;9021;50.882;4.326;2023-03-02T01:51:04;3.90;84.80
17795;DHT22;9021;50.882;4.326;2023-03-02T01:53:32;4.00;84.70
17795;DHT22;9021;50.882;4.326;2023-03-02T01:55:59;4.00;84.70
17795;DHT22;9021;50.882;4.326;2023-03-02T01:58:27;4.00;84.70
17795;DHT22;9021;50.882;4.326;2023-03-02T02:00:55;3.90;85.10
17795;DHT22;9021;50.882;4.326;2023-03-02T02:03:24;4.10;85.20
17795;DHT22;9021;50.882;4.326;2023-03-02T02:06:07;3.90;85.10
17795;DHT22;9021;50.882;4.326;2023-03-02T02:08:33;3.90;85.30
17795;DHT22;9021;50.882;4.326;2023-03-02T02:10:59;3.90;85.10
17795;DHT22;9021;50.882;4.326;2023-03-02T02:13:25;3.90;85.00
17795;DHT22;9021;50.882;4.326;2023-03-02T02:15:51;3.80;85.60
17795;DHT22;9021;50.882;4.326;2023-03-02T02:18:16;3.90;85.50
17795;DHT22;9021;50.882;4.326;2023-03-02T02:20:44;3.90;85.10
17795;DHT22;9021;50.882;4.326;2023-03-02T02:28:42;3.80;85.80
17795;DHT22;9021;50.882;4.326;2023-03-02T02:31:29;3.70;86.00
17795;DHT22;9021;50.882;4.326;2023-03-02T02:34:08;3.80;85.90
17795;DHT22;9021;50.882;4.326;2023-03-02T02:36:39;3.70;86.20
17795;DHT22;9021;50.882;4.326;2023-03-02T02:39:07;3.70;86.20
17795;DHT22;9021;50.882;4.326;2023-03-02T02:41:37;3.70;85.90
17795;DHT22;9021;50.882;4.326;2023-03-02T02:44:03;3.80;85.30
17795;DHT22;9021;50.882;4.326;2023-03-02T02:46:30;3.90;85.20
17795;DHT22;9021;50.882;4.326;2023-03-02T02:48:56;3.90;85.10
17795;DHT22;9021;50.882;4.326;2023-03-02T02:51:25;3.80;85.30
17795;DHT22;9021;50.882;4.326;2023-03-02T02:54:00;3.80;85.50
17795;DHT22;9021;50.882;4.326;2023-03-02T02:56:37;3.70;85.90
17795;DHT22;9021;50.882;4.326;2023-03-02T02:59:18;3.80;85.90
17795;DHT22;9021;50.882;4.326;2023-03-02T03:01:46;3.70;86.20
17795;DHT22;9021;50.882;4.326;2023-03-02T03:04:16;4.10;86.70
17795;DHT22;9021;50.882;4.326;2023-03-02T03:06:54;3.60;86.60
17795;DHT22;9021;50.882;4.326;2023-03-02T03:09:21;3.60;87.10
17795;DHT22;9021;50.882;4.326;2023-03-02T03:12:12;3.50;86.90
17795;DHT22;9021;50.882;4.326;2023-03-02T03:14:40;3.50;87.10
17795;DHT22;9021;50.882;4.326;2023-03-02T03:17:06;3.60;86.70
17795;DHT22;9021;50.882;4.326;2023-03-02T03:19:37;3.70;86.30
17795;DHT22;9021;50.882;4.326;2023-03-02T03:22:03;3.60;86.60
17795;DHT22;9021;50.882;4.326;2023-03-02T03:24:31;3.50;86.90
17795;DHT22;9021;50.882;4.326;2023-03-02T03:26:57;3.40;87.40
17795;DHT22;9021;50.882;4.326;2023-03-02T03:29:26;3.40;87.50
17795;DHT22;9021;50.882;4.326;2023-03-02T03:31:54;3.40;87.60
17795;DHT22;9021;50.882;4.326;2023-03-02T03:34:21;3.30;88.10
17795;DHT22;9021;50.882;4.326;2023-03-02T03:36:46;3.40;87.60
17795;DHT22;9021;50.882;4.326;2023-03-02T03:39:13;3.50;87.40
17795;DHT22;9021;50.882;4.326;2023-03-02T03:41:40;3.50;87.30
17795;DHT22;9021;50.882;4.326;2023-03-02T03:44:06;3.40;87.40
17795;DHT22;9021;50.882;4.326;2023-03-02T03:46:32;3.40;87.90
17795;DHT22;9021;50.882;4.326;2023-03-02T03:48:58;3.20;88.50
17795;DHT22;9021;50.882;4.326;2023-03-02T03:51:24;3.20;88.40
17795;DHT22;9021;50.882;4.326;2023-03-02T03:53:50;3.20;88.60
17795;DHT22;9021;50.882;4.326;2023-03-02T03:56:29;3.10;89.10
17795;DHT22;9021;50.882;4.326;2023-03-02T03:58:55;3.10;89.00
17795;DHT22;9021;50.882;4.326;2023-03-02T04:01:36;3.20;88.90
17795;DHT22;9021;50.882;4.326;2023-03-02T04:04:04;3.20;88.90
17795;DHT22;9021;50.882;4.326;2023-03-02T04:06:30;3.00;89.10
17795;DHT22;9021;50.882;4.326;2023-03-02T04:08:55;3.20;88.70
17795;DHT22;9021;50.882;4.326;2023-03-02T04:11:22;3.20;88.60
17795;DHT22;9021;50.882;4.326;2023-03-02T04:13:47;3.30;88.40
17795;DHT22;9021;50.882;4.326;2023-03-02T04:16:14;3.20;88.80
17795;DHT22;9021;50.882;4.326;2023-03-02T04:18:39;3.20;88.70
17795;DHT22;9021;50.882;4.326;2023-03-02T04:21:07;3.10;88.90
17795;DHT22;9021;50.882;4.326;2023-03-02T04:23:33;3.20;88.70
17795;DHT22;9021;50.882;4.326;2023-03-02T04:25:58;3.20;89.10
17795;DHT22;9021;50.882;4.326;2023-03-02T04:28:29;3.20;89.20
17795;DHT22;9021;50.882;4.326;2023-03-02T04:30:55;3.10;89.30
17795;DHT22;9021;50.882;4.326;2023-03-02T04:33:21;3.10;89.30
17795;DHT22;9021;50.882;4.326;2023-03-02T04:35:46;2.40;88.80
17795;DHT22;9021;50.882;4.326;2023-03-02T04:38:12;3.10;89.30
17795;DHT22;9021;50.882;4.326;2023-03-02T04:40:38;3.10;89.70
17795;DHT22;9021;50.882;4.326;2023-03-02T04:43:03;3.10;89.30
17795;DHT22;9021;50.882;4.326;2023-03-02T04:45:29;3.20;89.30
17795;DHT22;9021;50.882;4.326;2023-03-02T04:47:55;3.20;89.20
17795;DHT22;9021;50.882;4.326;2023-03-02T04:50:20;3.10;89.30
17795;DHT22;9021;50.882;4.326;2023-03-02T04:52:46;3.00;89.80
17795;DHT22;9021;50.882;4.326;2023-03-02T04:55:14;3.10;89.50
17795;DHT22;9021;50.882;4.326;2023-03-02T04:57:42;3.10;89.60
17795;DHT22;9021;50.882;4.326;2023-03-02T05:00:08;3.10;89.60
17795;DHT22;9021;50.882;4.326;2023-03-02T05:02:34;3.10;89.60
17795;DHT22;9021;50.882;4.326;2023-03-02T05:05:00;3.70;90.10
17795;DHT22;9021;50.882;4.326;2023-03-02T05:07:25;3.10;89.70
17795;DHT22;9021;50.882;4.326;2023-03-02T05:09:51;3.10;89.70
17795;DHT22;9021;50.882;4.326;2023-03-02T05:12:16;3.00;90.00
17795;DHT22;9021;50.882;4.326;2023-03-02T05:14:43;3.00;89.90
17795;DHT22;9021;50.882;4.326;2023-03-02T05:17:09;3.00;89.70
17795;DHT22;9021;50.882;4.326;2023-03-02T05:19:35;3.00;90.00
17795;DHT22;9021;50.882;4.326;2023-03-02T05:22:00;2.90;89.90
17795;DHT22;9021;50.882;4.326;2023-03-02T05:24:26;3.00;90.00
17795;DHT22;9021;50.882;4.326;2023-03-02T05:26:52;3.00;89.90
17795;DHT22;9021;50.882;4.326;2023-03-02T05:29:17;3.00;90.10
17795;DHT22;9021;50.882;4.326;2023-03-02T05:31:44;3.00;90.00
17795;DHT22;9021;50.882;4.326;2023-03-02T05:34:13;3.00;90.10
17795;DHT22;9021;50.882;4.326;2023-03-02T05:36:41;2.90;90.20
17795;DHT22;9021;50.882;4.326;2023-03-02T05:39:06;2.90;90.20
17795;DHT22;9021;50.882;4.326;2023-03-02T05:41:32;2.90;90.30
17795;DHT22;9021;50.882;4.326;2023-03-02T05:43:58;2.90;90.20
17795;DHT22;9021;50.882;4.326;2023-03-02T05:46:24;2.80;90.40
17795;DHT22;9021;50.882;4.326;2023-03-02T05:48:50;2.70;90.70
17795;DHT22;9021;50.882;4.326;2023-03-02T05:51:15;3.00;90.70
17795;DHT22;9021;50.882;4.326;2023-03-02T05:53:41;2.70;90.60
17795;DHT22;9021;50.882;4.326;2023-03-02T05:56:07;2.70;90.60
17795;DHT22;9021;50.882;4.326;2023-03-02T05:58:32;3.00;90.50
17795;DHT22;9021;50.882;4.326;2023-03-02T06:00:58;2.90;90.40
17795;DHT22;9021;50.882;4.326;2023-03-02T06:03:24;2.90;90.50
17795;DHT22;9021;50.882;4.326;2023-03-02T06:05:49;2.70;90.70
17795;DHT22;9021;50.882;4.326;2023-03-02T06:08:18;2.90;90.60
17795;DHT22;9021;50.882;4.326;2023-03-02T06:10:44;2.70;90.70
17795;DHT22;9021;50.882;4.326;2023-03-02T06:13:10;2.80;90.70
17795;DHT22;9021;50.882;4.326;2023-03-02T06:15:36;2.70;90.80
17795;DHT22;9021;50.882;4.326;2023-03-02T06:18:02;2.70;90.80
17795;DHT22;9021;50.882;4.326;2023-03-02T06:20:27;2.80;90.80
17795;DHT22;9021;50.882;4.326;2023-03-02T06:22:53;2.80;90.60
17795;DHT22;9021;50.882;4.326;2023-03-02T06:25:22;2.70;90.80
17795;DHT22;9021;50.882;4.326;2023-03-02T06:27:48;2.60;91.00
17795;DHT22;9021;50.882;4.326;2023-03-02T06:30:20;2.60;91.00
17795;DHT22;9021;50.882;4.326;2023-03-02T06:32:46;2.60;91.00
17795;DHT22;9021;50.882;4.326;2023-03-02T06:35:13;2.70;91.00
17795;DHT22;9021;50.882;4.326;2023-03-02T06:37:39;2.60;91.00
17795;DHT22;9021;50.882;4.326;2023-03-02T06:40:05;3.80;91.40
17795;DHT22;9021;50.882;4.326;2023-03-02T06:42:38;2.70;91.10
17795;DHT22;9021;50.882;4.326;2023-03-02T06:45:05;2.70;91.00
17795;DHT22;9021;50.882;4.326;2023-03-02T06:47:31;2.70;91.10
17795;DHT22;9021;50.882;4.326;2023-03-02T06:49:58;2.70;91.20
17795;DHT22;9021;50.882;4.326;2023-03-02T06:52:23;2.70;91.20
17795;DHT22;9021;50.882;4.326;2023-03-02T06:54:49;2.80;91.40
17795;DHT22;9021;50.882;4.326;2023-03-02T06:57:14;2.90;91.00
17795;DHT22;9021;50.882;4.326;2023-03-02T06:59:40;3.10;90.90
17795;DHT22;9021;50.882;4.326;2023-03-02T07:02:08;3.50;90.50
17795;DHT22;9021;50.882;4.326;2023-03-02T07:04:34;3.70;90.30
17795;DHT22;9021;50.882;4.326;2023-03-02T07:06:59;4.00;90.00
17795;DHT22;9021;50.882;4.326;2023-03-02T07:09:25;4.10;89.90
17795;DHT22;9021;50.882;4.326;2023-03-02T07:11:50;4.30;89.00
17795;DHT22;9021;50.882;4.326;2023-03-02T07:14:16;4.50;88.60
17795;DHT22;9021;50.882;4.326;2023-03-02T07:16:42;4.90;87.70
17795;DHT22;9021;50.882;4.326;2023-03-02T07:19:13;5.40;86.50
17795;DHT22;9021;50.882;4.326;2023-03-02T07:21:39;6.00;85.40
17795;DHT22;9021;50.882;4.326;2023-03-02T07:24:05;6.80;83.60
17795;DHT22;9021;50.882;4.326;2023-03-02T07:26:31;7.40;81.40
17795;DHT22;9021;50.882;4.326;2023-03-02T07:28:57;8.20;79.60
17795;DHT22;9021;50.882;4.326;2023-03-02T07:31:24;8.80;78.80
17795;DHT22;9021;50.882;4.326;2023-03-02T07:33:50;9.50;76.60
17795;DHT22;9021;50.882;4.326;2023-03-02T07:36:16;9.40;75.60
17795;DHT22;9021;50.882;4.326;2023-03-02T07:38:41;9.20;76.00
17795;DHT22;9021;50.882;4.326;2023-03-02T07:41:08;9.40;76.70
17795;DHT22;9021;50.882;4.326;2023-03-02T07:43:34;9.90;76.00
17795;DHT22;9021;50.882;4.326;2023-03-02T07:46:04;10.30;73.80
17795;DHT22;9021;50.882;4.326;2023-03-02T07:48:30;10.80;73.20
17795;DHT22;9021;50.882;4.326;2023-03-02T07:51:00;11.10;72.60
17795;DHT22;9021;50.882;4.326;2023-03-02T07:53:27;11.70;71.50
17795;DHT22;9021;50.882;4.326;2023-03-02T07:55:53;11.90;70.20
17795;DHT22;9021;50.882;4.326;2023-03-02T07:58:19;12.30;70.30
17795;DHT22;9021;50.882;4.326;2023-03-02T08:00:45;12.70;69.00
17795;DHT22;9021;50.882;4.326;2023-03-02T08:03:10;12.90;68.90
17795;DHT22;9021;50.882;4.326;2023-03-02T08:05:36;13.30;69.00
17795;DHT22;9021;50.882;4.326;2023-03-02T08:08:01;13.90;67.10
17795;DHT22;9021;50.882;4.326;2023-03-02T08:10:27;14.00;66.90
17795;DHT22;9021;50.882;4.326;2023-03-02T08:12:53;14.00;66.10
17795;DHT22;9021;50.882;4.326;2023-03-02T08:15:18;14.00;66.80
17795;DHT22;9021;50.882;4.326;2023-03-02T08:17:44;14.10;66.20
17795;DHT22;9021;50.882;4.326;2023-03-02T08:20:10;13.80;66.10
17795;DHT22;9021;50.882;4.326;2023-03-02T08:22:36;13.60;66.60
17795;DHT22;9021;50.882;4.326;2023-03-02T08:25:02;13.80;66.40
17795;DHT22;9021;50.882;4.326;2023-03-02T08:27:28;13.60;66.20
17795;DHT22;9021;50.882;4.326;2023-03-02T08:29:53;13.20;66.30
17795;DHT22;9021;50.882;4.326;2023-03-02T08:32:19;13.00;66.90
17795;DHT22;9021;50.882;4.326;2023-03-02T08:34:45;12.80;66.60
17795;DHT22;9021;50.882;4.326;2023-03-02T08:37:15;12.30;67.50
17795;DHT22;9021;50.882;4.326;2023-03-02T08:39:41;12.00;68.10
17795;DHT22;9021;50.882;4.326;2023-03-02T08:42:07;12.20;68.10
17795;DHT22;9021;50.882;4.326;2023-03-02T08:44:32;12.40;67.80
17795;DHT22;9021;50.882;4.326;2023-03-02T08:46:58;12.20;67.40
17795;DHT22;9021;50.882;4.326;2023-03-02T08:49:24;12.40;67.80
17795;DHT22;9021;50.882;4.326;2023-03-02T08:51:49;12.20;67.50
17795;DHT22;9021;50.882;4.326;2023-03-02T08:54:18;12.90;68.60
17795;DHT22;9021;50.882;4.326;2023-03-02T08:56:44;11.60;68.70
17795;DHT22;9021;50.882;4.326;2023-03-02T08:59:11;11.40;69.20
17795;DHT22;9021;50.882;4.326;2023-03-02T09:01:37;10.70;70.10
17795;DHT22;9021;50.882;4.326;2023-03-02T09:04:05;10.20;70.80
17795;DHT22;9021;50.882;4.326;2023-03-02T09:06:34;10.10;71.20
17795;DHT22;9021;50.882;4.326;2023-03-02T09:09:00;10.00;72.00
17795;DHT22;9021;50.882;4.326;2023-03-02T09:11:26;9.90;71.90
17795;DHT22;9021;50.882;4.326;2023-03-02T09:13:52;9.90;72.20
17795;DHT22;9021;50.882;4.326;2023-03-02T09:16:19;9.90;72.10
17795;DHT22;9021;50.882;4.326;2023-03-02T09:18:45;9.90;72.10
17795;DHT22;9021;50.882;4.326;2023-03-02T09:21:11;9.90;72.30
17795;DHT22;9021;50.882;4.326;2023-03-02T09:23:37;10.00;72.80
17795;DHT22;9021;50.882;4.326;2023-03-02T09:26:03;10.00;72.60
17795;DHT22;9021;50.882;4.326;2023-03-02T09:28:29;10.30;72.40
17795;DHT22;9021;50.882;4.326;2023-03-02T09:30:56;10.30;72.20
17795;DHT22;9021;50.882;4.326;2023-03-02T09:33:22;10.40;72.60
17795;DHT22;9021;50.882;4.326;2023-03-02T09:35:48;10.30;72.00
17795;DHT22;9021;50.882;4.326;2023-03-02T09:38:14;10.20;72.30
17795;DHT22;9021;50.882;4.326;2023-03-02T09:46:05;10.50;72.20
17795;DHT22;9021;50.882;4.326;2023-03-02T09:56:18;10.20;92.60
17795;DHT22;9021;50.882;4.326;2023-03-02T10:28:21;16.10;64.90
17795;DHT22;9021;50.882;4.326;2023-03-02T10:30:54;15.90;71.10
17795;DHT22;9021;50.882;4.326;2023-03-02T10:38:19;16.40;72.70
17795;DHT22;9021;50.882;4.326;2023-03-02T10:43:43;15.70;64.80
17795;DHT22;9021;50.882;4.326;2023-03-02T10:46:11;15.70;65.20
17795;DHT22;9021;50.882;4.326;2023-03-02T10:48:52;15.70;67.30
17795;DHT22;9021;50.882;4.326;2023-03-02T10:51:31;14.90;69.60
17795;DHT22;9021;50.882;4.326;2023-03-02T10:54:16;16.00;66.50
17795;DHT22;9021;50.882;4.326;2023-03-02T10:56:48;16.70;63.00
17795;DHT22;9021;50.882;4.326;2023-03-02T11:04:38;18.10;61.10
17795;DHT22;9021;50.882;4.326;2023-03-02T11:07:17;18.70;61.00
17795;DHT22;9021;50.882;4.326;2023-03-02T11:09:55;18.70;60.10
17795;DHT22;9021;50.882;4.326;2023-03-02T11:12:22;19.20;60.00
17795;DHT22;9021;50.882;4.326;2023-03-02T11:17:33;20.70;58.60
17795;DHT22;9021;50.882;4.326;2023-03-02T11:20:02;20.90;58.30
17795;DHT22;9021;50.882;4.326;2023-03-02T11:22:51;21.20;57.30
17795;DHT22;9021;50.882;4.326;2023-03-02T11:25:25;21.10;68.10
17795;DHT22;9021;50.882;4.326;2023-03-02T11:28:00;22.00;56.00
17795;DHT22;9021;50.882;4.326;2023-03-02T11:30:29;22.40;55.60
17795;DHT22;9021;50.882;4.326;2023-03-02T11:33:13;22.60;54.80
17795;DHT22;9021;50.882;4.326;2023-03-02T11:35:46;22.90;54.90
17795;DHT22;9021;50.882;4.326;2023-03-02T11:38:20;23.70;60.00
17795;DHT22;9021;50.882;4.326;2023-03-02T11:40:58;24.30;53.00
17795;DHT22;9021;50.882;4.326;2023-03-02T11:43:24;24.70;54.10
17795;DHT22;9021;50.882;4.326;2023-03-02T11:46:02;25.30;51.60
17795;DHT22;9021;50.882;4.326;2023-03-02T11:50:59;25.20;51.50
17795;DHT22;9021;50.882;4.326;2023-03-02T11:58:28;24.80;52.00
17795;DHT22;9021;50.882;4.326;2023-03-02T12:00:56;25.20;51.10
17795;DHT22;9021;50.882;4.326;2023-03-02T12:11:00;25.60;65.60
17795;DHT22;9021;50.882;4.326;2023-03-02T12:13:37;25.50;50.60
17795;DHT22;9021;50.882;4.326;2023-03-02T12:18:46;25.80;53.20
17795;DHT22;9021;50.882;4.326;2023-03-02T12:21:19;25.70;56.60
17795;DHT22;9021;50.882;4.326;2023-03-02T12:31:46;25.10;50.50
17795;DHT22;9021;50.882;4.326;2023-03-02T12:34:34;25.20;50.50
17795;DHT22;9021;50.882;4.326;2023-03-02T12:44:49;26.00;49.80
17795;DHT22;9021;50.882;4.326;2023-03-02T12:47:18;24.90;55.20
17795;DHT22;9021;50.882;4.326;2023-03-02T12:49:58;25.60;54.40
17795;DHT22;9021;50.882;4.326;2023-03-02T12:52:34;25.70;49.60
17795;DHT22;9021;50.882;4.326;2023-03-02T12:55:05;25.60;49.60
17795;DHT22;9021;50.882;4.326;2023-03-02T12:57:32;25.70;51.00
17795;DHT22;9021;50.882;4.326;2023-03-02T13:00:00;26.00;50.70
17795;DHT22;9021;50.882;4.326;2023-03-02T13:02:35;26.20;56.50
17795;DHT22;9021;50.882;4.326;2023-03-02T13:05:07;25.80;57.30
17795;DHT22;9021;50.882;4.326;2023-03-02T13:07:39;23.90;57.50
17795;DHT22;9021;50.882;4.326;2023-03-02T13:10:40;23.90;51.00
17795;DHT22;9021;50.882;4.326;2023-03-02T13:16:23;24.70;55.50
17795;DHT22;9021;50.882;4.326;2023-03-02T13:18:52;25.10;50.00
17795;DHT22;9021;50.882;4.326;2023-03-02T13:21:33;25.50;56.60
17795;DHT22;9021;50.882;4.326;2023-03-02T13:24:00;25.40;56.60
17795;DHT22;9021;50.882;4.326;2023-03-02T13:26:34;25.30;58.80
17795;DHT22;9021;50.882;4.326;2023-03-02T13:29:03;24.90;57.10
17795;DHT22;9021;50.882;4.326;2023-03-02T13:31:30;25.00;56.60
17795;DHT22;9021;50.882;4.326;2023-03-02T13:33:57;24.30;55.90
17795;DHT22;9021;50.882;4.326;2023-03-02T13:36:34;23.70;57.30
17795;DHT22;9021;50.882;4.326;2023-03-02T13:39:03;23.00;57.80
17795;DHT22;9021;50.882;4.326;2023-03-02T13:41:33;22.30;59.20
17795;DHT22;9021;50.882;4.326;2023-03-02T13:44:17;22.70;59.30
17795;DHT22;9021;50.882;4.326;2023-03-02T13:46:44;22.00;58.90
17795;DHT22;9021;50.882;4.326;2023-03-02T13:49:10;22.50;61.40
17795;DHT22;9021;50.882;4.326;2023-03-02T13:51:42;22.80;60.20
17795;DHT22;9021;50.882;4.326;2023-03-02T13:54:19;22.10;60.90
17795;DHT22;9021;50.882;4.326;2023-03-02T13:56:46;21.40;60.50
17795;DHT22;9021;50.882;4.326;2023-03-02T13:59:14;20.80;56.30
17795;DHT22;9021;50.882;4.326;2023-03-02T14:04:11;20.70;64.80
17795;DHT22;9021;50.882;4.326;2023-03-02T14:06:36;19.90;62.80
17795;DHT22;9021;50.882;4.326;2023-03-02T14:11:29;20.00;55.30
17795;DHT22;9021;50.882;4.326;2023-03-02T14:13:58;19.30;61.00
17795;DHT22;9021;50.882;4.326;2023-03-02T14:16:24;19.50;59.30
17795;DHT22;9021;50.882;4.326;2023-03-02T14:18:50;19.40;56.40
17795;DHT22;9021;50.882;4.326;2023-03-02T14:21:21;19.00;59.50
17795;DHT22;9021;50.882;4.326;2023-03-02T14:23:48;21.70;63.60
17795;DHT22;9021;50.882;4.326;2023-03-02T14:28:42;18.10;61.80
17795;DHT22;9021;50.882;4.326;2023-03-02T14:31:09;18.40;63.00
17795;DHT22;9021;50.882;4.326;2023-03-02T14:33:35;17.90;58.60
17795;DHT22;9021;50.882;4.326;2023-03-02T14:36:01;17.80;63.20
17795;DHT22;9021;50.882;4.326;2023-03-02T14:38:28;18.10;59.40
17795;DHT22;9021;50.882;4.326;2023-03-02T14:40:54;17.90;60.10
17795;DHT22;9021;50.882;4.326;2023-03-02T14:43:20;17.80;63.70
17795;DHT22;9021;50.882;4.326;2023-03-02T14:45:47;17.90;63.90
17795;DHT22;9021;50.882;4.326;2023-03-02T14:48:13;17.50;63.70
17795;DHT22;9021;50.882;4.326;2023-03-02T14:50:42;17.60;64.10
17795;DHT22;9021;50.882;4.326;2023-03-02T14:53:14;17.70;64.10
17795;DHT22;9021;50.882;4.326;2023-03-02T14:55:41;17.50;64.40
17795;DHT22;9021;50.882;4.326;2023-03-02T15:00:36;16.70;67.30
17795;DHT22;9021;50.882;4.326;2023-03-02T15:07:54;17.00;66.90
17795;DHT22;9021;50.882;4.326;2023-03-02T15:10:22;16.30;66.00
17795;DHT22;9021;50.882;4.326;2023-03-02T15:12:49;16.00;66.10
17795;DHT22;9021;50.882;4.326;2023-03-02T15:15:15;16.00;65.60
17795;DHT22;9021;50.882;4.326;2023-03-02T15:17:41;15.90;64.50
17795;DHT22;9021;50.882;4.326;2023-03-02T15:20:11;16.20;65.70
17795;DHT22;9021;50.882;4.326;2023-03-02T15:22:37;15.40;67.30
17795;DHT22;9021;50.882;4.326;2023-03-02T15:27:29;16.20;65.40
17795;DHT22;9021;50.882;4.326;2023-03-02T15:29:55;16.20;65.20
17795;DHT22;9021;50.882;4.326;2023-03-02T15:32:20;15.80;65.70
17795;DHT22;9021;50.882;4.326;2023-03-02T15:34:46;15.50;66.70
17795;DHT22;9021;50.882;4.326;2023-03-02T15:39:39;15.70;62.80
17795;DHT22;9021;50.882;4.326;2023-03-02T15:42:05;16.00;67.20
17795;DHT22;9021;50.882;4.326;2023-03-02T15:44:31;15.80;63.50
17795;DHT22;9021;50.882;4.326;2023-03-02T15:46:59;15.20;67.10
17795;DHT22;9021;50.882;4.326;2023-03-02T15:49:25;15.30;63.10
17795;DHT22;9021;50.882;4.326;2023-03-02T15:51:54;15.50;67.30
17795;DHT22;9021;50.882;4.326;2023-03-02T15:54:22;14.90;69.40
17795;DHT22;9021;50.882;4.326;2023-03-02T15:56:47;14.90;63.40
17795;DHT22;9021;50.882;4.326;2023-03-02T15:59:16;15.10;69.00
17795;DHT22;9021;50.882;4.326;2023-03-02T16:01:43;14.50;63.90
17795;DHT22;9021;50.882;4.326;2023-03-02T16:04:08;14.50;64.40
17795;DHT22;9021;50.882;4.326;2023-03-02T16:06:35;14.60;70.50
17795;DHT22;9021;50.882;4.326;2023-03-02T16:09:01;13.60;64.20
17795;DHT22;9021;50.882;4.326;2023-03-02T16:11:27;14.10;70.50
17795;DHT22;9021;50.882;4.326;2023-03-02T16:16:20;14.00;66.00
17795;DHT22;9021;50.882;4.326;2023-03-02T16:18:54;13.90;65.80
17795;DHT22;9021;50.882;4.326;2023-03-02T16:21:20;13.90;72.20
17795;DHT22;9021;50.882;4.326;2023-03-02T16:26:16;13.60;66.80
17795;DHT22;9021;50.882;4.326;2023-03-02T16:28:44;13.40;67.40
17795;DHT22;9021;50.882;4.326;2023-03-02T16:31:16;12.90;74.10
17795;DHT22;9021;50.882;4.326;2023-03-02T16:33:43;13.50;74.30
17795;DHT22;9021;50.882;4.326;2023-03-02T16:36:10;13.20;68.30
17795;DHT22;9021;50.882;4.326;2023-03-02T16:38:36;13.30;68.40
17795;DHT22;9021;50.882;4.326;2023-03-02T16:41:12;13.30;68.80
17795;DHT22;9021;50.882;4.326;2023-03-02T16:44:04;13.20;76.80
17795;DHT22;9021;50.882;4.326;2023-03-02T16:46:31;13.10;68.60
17795;DHT22;9021;50.882;4.326;2023-03-02T16:51:26;13.00;68.60
17795;DHT22;9021;50.882;4.326;2023-03-02T16:56:18;12.30;73.60
17795;DHT22;9021;50.882;4.326;2023-03-02T17:01:13;12.50;68.80
17795;DHT22;9021;50.882;4.326;2023-03-02T17:03:40;12.50;68.80
17795;DHT22;9021;50.882;4.326;2023-03-02T17:06:07;12.50;69.30
17795;DHT22;9021;50.882;4.326;2023-03-02T17:08:34;12.40;70.10
17795;DHT22;9021;50.882;4.326;2023-03-02T17:10:59;12.30;70.00
17795;DHT22;9021;50.882;4.326;2023-03-02T17:13:25;12.20;70.10
17795;DHT22;9021;50.882;4.326;2023-03-02T17:15:51;13.30;71.60
17795;DHT22;9021;50.882;4.326;2023-03-02T17:18:17;12.90;71.20
17795;DHT22;9021;50.882;4.326;2023-03-02T17:20:42;12.00;75.10
17795;DHT22;9021;50.882;4.326;2023-03-02T17:23:08;12.00;71.00
17795;DHT22;9021;50.882;4.326;2023-03-02T17:25:36;12.40;70.90
17795;DHT22;9021;50.882;4.326;2023-03-02T17:28:02;12.00;71.00
17795;DHT22;9021;50.882;4.326;2023-03-02T17:30:28;11.80;71.40
17795;DHT22;9021;50.882;4.326;2023-03-02T17:32:54;11.70;71.40
17795;DHT22;9021;50.882;4.326;2023-03-02T17:35:19;11.70;71.30
17795;DHT22;9021;50.882;4.326;2023-03-02T17:37:45;11.70;71.10
17795;DHT22;9021;50.882;4.326;2023-03-02T17:40:13;11.50;71.50
17795;DHT22;9021;50.882;4.326;2023-03-02T17:42:39;11.50;71.40
17795;DHT22;9021;50.882;4.326;2023-03-02T17:45:05;11.20;72.00
17795;DHT22;9021;50.882;4.326;2023-03-02T17:47:31;11.20;72.10
17795;DHT22;9021;50.882;4.326;2023-03-02T17:49:57;11.10;72.10
17795;DHT22;9021;50.882;4.326;2023-03-02T17:52:23;11.60;72.90
17795;DHT22;9021;50.882;4.326;2023-03-02T17:54:49;11.00;72.40
17795;DHT22;9021;50.882;4.326;2023-03-02T17:57:15;11.10;72.70
17795;DHT22;9021;50.882;4.326;2023-03-02T17:59:46;11.00;72.60
17795;DHT22;9021;50.882;4.326;2023-03-02T18:02:12;10.90;72.90
17795;DHT22;9021;50.882;4.326;2023-03-02T18:04:38;10.90;72.30
17795;DHT22;9021;50.882;4.326;2023-03-02T18:07:03;10.80;72.60
17795;DHT22;9021;50.882;4.326;2023-03-02T18:09:29;10.90;74.60
17795;DHT22;9021;50.882;4.326;2023-03-02T18:16:48;10.70;81.40